Terminal Aerodrome Forecast
Issued by NWS

Home | Current Version | Previous Version | Graphics & Text | Print | Product List | Glossary On
Versions: 1 2 3 4 5 6 7 8 9 10 11 12 13 14 15 16 17
000
FTUS43 KABR 182200 AAA
TAFATY
TAF AMD
KATY 182225Z 1822/1918 08006KT P6SM OVC070
     FM190000 06008KT P6SM -SHRA OVC040
     FM190800 36008KT P6SM OVC040
     FM191000 32015KT P6SM OVC040
     FM191300 33020G30KT P6SM OVC070=

USA.gov is the U.S. government's official web portal to all federal, state and local government web resources and services.